IT9FDP-13 Weather Reports


Display with metric or nautical units.
time (UTC)temp
F
wind
direction
speed
MPH
gust
MPH
rain 1hr
in
rain 24hr
in
rain mn
in
humidity
%
barometer
mb
20260906072517 88 178 2.0 6.0 0.00 0.00 0.00 63 1018.7
20260906072027 88 151 2.0 4.0 0.00 0.00 0.00 63 1018.7
20260906071519 88 160 2.0 4.0 0.00 0.00 0.00 63 1018.7
20260906071020 87 186 2.0 5.0 0.00 0.00 0.00 64 1018.6
20260906070522 87 187 3.0 5.0 0.00 0.00 0.00 65 1018.6
20260906070019 87 187 3.0 5.0 0.00 0.00 0.00 65 1018.5
20260906065521 87 195 3.0 6.0 0.00 0.00 0.00 65 1018.4
20260906065019 86 180 3.0 5.0 0.00 0.00 0.00 66 1018.4
20260906064525 86 182 2.0 6.0 0.00 0.00 0.00 66 1018.4
20260906064046 86 187 3.0 6.0 0.00 0.00 0.00 67 1018.4
20260906063537 86 197 3.0 6.0 0.00 0.00 0.00 67 1018.3
20260906063018 86 186 3.0 5.0 0.00 0.00 0.00 68 1018.3
20260906062521 86 188 3.0 4.0 0.00 0.00 0.00 68 1018.3
20260906062025 86 180 2.0 3.0 0.00 0.00 0.00 68 1018.3
20260906061521 85 190 2.0 4.0 0.00 0.00 0.00 69 1018.3
20260906061022 85 185 2.0 4.0 0.00 0.00 0.00 69 1018.2
20260906060520 85 187 3.0 5.0 0.00 0.00 0.00 70 1018.2
20260906060044 85 190 3.0 5.0 0.00 0.00 0.00 71 1018.2
20260906055526 84 198 3.0 6.0 0.00 0.00 0.00 72 1018.1
20260906055017 84 197 3.0 5.0 0.00 0.00 0.00 72 1018.1
20260906054525 84 185 2.0 6.0 0.00 0.00 0.00 72 1018.0
20260906054018 84 179 2.0 4.0 0.00 0.00 0.00 73 1018.0
20260906053539 83 188 3.0 5.0 0.00 0.00 0.00 73 1018.1
20260906053025 83 200 2.0 4.0 0.00 0.00 0.00 74 1018.0
20260906052525 83 186 2.0 4.0 0.00 0.00 0.00 74 1017.9
20260906052023 82 182 1.0 4.0 0.00 0.00 0.00 74 1017.9
20260906051518 82 175 1.0 4.0 0.00 0.00 0.00 74 1018.0
20260906051016 81 184 1.0 2.0 0.00 0.00 0.00 74 1017.9
20260906050556 81 191 2.0 4.0 0.00 0.00 0.00 74 1017.8
20260906050020 81 191 1.0 3.0 0.00 0.00 0.00 75 1017.8
20260906045517 81 171 1.0 2.0 0.00 0.00 0.00 75 1017.8
20260906045102 81 176 1.0 3.0 0.00 0.00 0.00 74 1017.7
20260906044538 81 192 2.0 4.0 0.00 0.00 0.00 74 1017.7
20260906044037 81 207 1.0 4.0 0.00 0.00 0.00 74 1017.7
20260906043518 81 177 1.0 3.0 0.00 0.00 0.00 74 1017.6
20260906043026 81 168 1.0 2.0 0.00 0.00 0.00 74 1017.6
20260906042523 81 186 1.0 4.0 0.00 0.00 0.00 74 1017.7
20260906042042 81 191 2.0 4.0 0.00 0.00 0.00 74 1017.8
20260906041521 81 188 0.0 3.0 0.00 0.00 0.00 74 1017.8
20260906041044 81 177 1.0 4.0 0.00 0.00 0.00 74 1017.7
20260906040524 81 183 2.0 3.0 0.00 0.00 0.00 74 1017.7
20260906040019 81 186 1.0 3.0 0.00 0.00 0.00 74 1017.6
20260906035521 81 189 1.0 4.0 0.00 0.00 0.00 74 1017.6
20260906035019 81 197 2.0 4.0 0.00 0.00 0.00 74 1017.5
20260906034523 81 195 2.0 6.0 0.00 0.00 0.00 74 1017.6
20260906034019 81 181 2.0 4.0 0.00 0.00 0.00 74 1017.5
20260906033525 81 192 2.0 4.0 0.00 0.00 0.00 74 1017.5
20260906033025 81 172 0.0 2.0 0.00 0.00 0.00 74 1017.5
20260906032546 81 186 2.0 3.0 0.00 0.00 0.00 74 1017.5
20260906032042 81 201 1.0 4.0 0.00 0.00 0.00 74 1017.4
20260906031522 81 170 1.0 3.0 0.00 0.00 0.00 73 1017.3
20260906031046 81 189 2.0 6.0 0.00 0.00 0.00 73 1017.3
20260906030521 81 188 0.0 2.0 0.00 0.00 0.00 73 1017.4
20260906030022 81 178 1.0 3.0 0.00 0.00 0.00 73 1017.5
20260906025541 81 199 2.0 4.0 0.00 0.00 0.00 74 1017.5
20260906025019 81 202 2.0 4.0 0.00 0.00 0.00 74 1017.5
20260906024520 81 198 2.0 5.0 0.00 0.00 0.00 73 1017.5
20260906024024 81 127 1.0 2.0 0.00 0.00 0.00 73 1017.6
20260906023528 81 184 2.0 4.0 0.00 0.00 0.00 73 1017.6
20260906023017 81 183 1.0 3.0 0.00 0.00 0.00 73 1017.6
20260906022523 81 200 2.0 4.0 0.00 0.00 0.00 73 1017.7
20260906022023 81 183 2.0 3.0 0.00 0.00 0.00 73 1017.7
20260906021517 82 195 1.0 3.0 0.00 0.00 0.00 73 1017.7
20260906021025 82 186 1.0 2.0 0.00 0.00 0.00 73 1017.7
20260906020525 82 189 1.0 4.0 0.00 0.00 0.00 73 1017.7
20260906020026 82 186 2.0 4.0 0.00 0.00 0.00 73 1017.6
20260906015519 82 203 1.0 4.0 0.00 0.00 0.00 73 1017.7
20260906015017 81 156 1.0 4.0 0.00 0.00 0.00 73 1017.7
20260906014519 81 196 2.0 4.0 0.00 0.00 0.00 74 1017.7
20260906014016 81 185 2.0 4.0 0.00 0.00 0.00 74 1017.6
20260906013542 81 176 1.0 2.0 0.00 0.00 0.00 74 1017.5
20260906012523 81 198 2.0 6.0 0.00 0.00 0.00 74 1017.7
20260906012025 81 183 1.0 3.0 0.00 0.00 0.00 74 1017.6
20260906011521 81 188 2.0 5.0 0.00 0.00 0.00 74 1017.6
20260906011024 81 194 1.0 3.0 0.00 0.00 0.00 74 1017.7
20260906010519 81 213 1.0 4.0 0.00 0.00 0.00 74 1017.7
20260906010046 81 190 2.0 4.0 0.00 0.00 0.00 74 1017.7
20260906005518 81 195 1.0 3.0 0.00 0.00 0.00 74 1017.6
20260906005018 81 178 1.0 4.0 0.00 0.00 0.00 74 1017.6
20260906004522 81 183 0.0 2.0 0.00 0.00 0.00 75 1017.7
20260906004020 81 143 1.0 4.0 0.00 0.00 0.00 75 1017.7
20260906003537 82 191 1.0 3.0 0.00 0.00 0.00 75 1017.7
20260906003022 82 181 1.0 2.0 0.00 0.00 0.00 75 1017.7
20260906002522 82 180 1.0 2.0 0.00 0.00 0.00 75 1017.7
20260906002023 82 178 1.0 3.0 0.00 0.00 0.00 74 1017.6
20260906001542 82 166 1.0 2.0 0.00 0.00 0.00 74 1017.7
20260906001018 82 7 2.0 7.0 0.00 0.00 0.00 74 1017.7
20260906000524 82 74 1.0 4.0 0.00 0.00 0.00 74 1017.7
20260906000020 82 1 1.0 6.0 0.00 0.00 0.00 74 1017.8
20260905235523 82 181 1.0 3.0 0.00 0.00 0.00 74 1017.9
20260905235019 82 180 0.0 2.0 0.00 0.00 0.00 74 1018.0
20260905234516 82 31 1.0 4.0 0.00 0.00 0.00 74 1018.0
20260905234023 83 176 1.0 3.0 0.00 0.00 0.00 73 1017.9
20260905233522 83 152 1.0 3.0 0.00 0.00 0.00 73 1018.0
20260905233020 83 188 1.0 3.0 0.00 0.00 0.00 73 1018.1
20260905232521 83 146 1.0 3.0 0.00 0.00 0.00 73 1018.2
20260905232018 83 102 1.0 2.0 0.00 0.00 0.00 73 1018.1
20260905231523 83 13 1.0 4.0 0.00 0.00 0.00 73 1018.1
20260905231019 83 13 1.0 5.0 0.00 0.00 0.00 72 1018.2
20260905230518 83 14 1.0 3.0 0.00 0.00 0.00 72 1018.3
20260905230023 83 19 1.0 4.0 0.00 0.00 0.00 72 1018.3
20260905225525 83 5 1.0 4.0 0.00 0.00 0.00 72 1018.3
20260905225021 83 181 0.0 4.0 0.00 0.00 0.00 72 1018.3
20260905224542 83 158 1.0 2.0 0.00 0.00 0.00 71 1018.3
20260905224016 83 167 0.0 2.0 0.00 0.00 0.00 71 1018.2
20260905223526 83 181 2.0 4.0 0.00 0.00 0.00 71 1018.3
20260905223017 83 194 1.0 2.0 0.00 0.00 0.00 71 1018.4
20260905222525 83 192 2.0 4.0 0.00 0.00 0.00 71 1018.4
20260905222019 83 185 1.0 2.0 0.00 0.00 0.00 71 1018.4
20260905221524 83 165 1.0 2.0 0.00 0.00 0.00 70 1018.3
20260905221037 83 177 0.0 2.0 0.00 0.00 0.00 70 1018.3
20260905220524 83 193 0.0 2.0 0.00 0.00 0.00 70 1018.3
20260905220047 83 158 0.0 1.0 0.00 0.00 0.00 70 1018.4
20260905215522 83 180 0.0 1.0 0.00 0.00 0.00 70 1018.3
20260905215021 83 158 0.0 1.0 0.00 0.00 0.00 69 1018.3
20260905214523 83 183 0.0 2.0 0.00 0.00 0.00 69 1018.3
20260905214023 83 195 0.0 2.0 0.00 0.00 0.00 69 1018.4
20260905213523 83 190 1.0 4.0 0.00 0.00 0.00 69 1018.3
20260905213048 83 191 1.0 4.0 0.00 0.00 0.00 69 1018.3
20260905212519 83 199 1.0 2.0 0.00 0.00 0.00 69 1018.3
20260905212022 83 177 1.0 4.0 0.00 0.00 0.00 69 1018.4
20260905211525 83 187 2.0 4.0 0.00 0.00 0.00 69 1018.6
20260905211025 83 174 1.0 3.0 0.00 0.00 0.00 69 1018.5
20260905210544 83 190 1.0 4.0 0.00 0.00 0.00 69 1018.5
20260905210023 83 186 1.0 2.0 0.00 0.00 0.00 69 1018.4
20260905205523 83 189 1.0 4.0 0.00 0.00 0.00 69 1018.4
20260905205025 83 179 1.0 3.0 0.00 0.00 0.00 69 1018.4
20260905204523 83 197 1.0 4.0 0.00 0.00 0.00 69 1018.4
20260905204035 83 177 1.0 3.0 0.00 0.00 0.00 69 1018.4
20260905203517 83 183 1.0 3.0 0.00 0.00 0.00 70 1018.4
20260905203017 83 183 1.0 3.0 0.00 0.00 0.00 70 1018.4
20260905202522 83 185 2.0 3.0 0.00 0.00 0.00 70 1018.4
20260905202020 83 177 1.0 2.0 0.00 0.00 0.00 70 1018.5
20260905201542 84 179 2.0 4.0 0.00 0.00 0.00 70 1018.5
20260905201019 84 56 1.0 4.0 0.00 0.00 0.00 70 1018.5
20260905200523 84 179 1.0 3.0 0.00 0.00 0.00 70 1018.4
20260905200024 84 178 2.0 5.0 0.00 0.00 0.00 69 1018.4
20260905195517 84 172 1.0 2.0 0.00 0.00 0.00 69 1018.6
20260905195020 84 181 1.0 3.0 0.00 0.00 0.00 69 1018.5
20260905194525 84 188 2.0 4.0 0.00 0.00 0.00 69 1018.4
20260905194024 84 183 1.0 3.0 0.00 0.00 0.00 69 1018.5
20260905193519 84 166 0.0 2.0 0.00 0.00 0.00 69 1018.4
20260905193027 84 168 1.0 3.0 0.00 0.00 0.00 69 1018.4
20260905192541 84 180 1.0 4.0 0.00 0.00 0.00 69 1018.3
20260905192026 84 167 1.0 4.0 0.00 0.00 0.00 69 1018.3
20260905191520 84 174 1.0 4.0 0.00 0.00 0.00 69 1018.4
20260905191021 84 174 1.0 2.0 0.00 0.00 0.00 69 1018.3
20260905190519 84 185 1.0 2.0 0.00 0.00 0.00 69 1018.2
20260905190041 84 178 1.0 3.0 0.00 0.00 0.00 69 1018.2
20260905185523 84 170 1.0 4.0 0.00 0.00 0.00 69 1018.1
20260905185017 84 167 1.0 3.0 0.00 0.00 0.00 69 1018.1
20260905184518 84 159 1.0 3.0 0.00 0.00 0.00 69 1018.1
20260905184016 85 188 1.0 4.0 0.00 0.00 0.00 68 1018.1
20260905183522 85 182 1.0 3.0 0.00 0.00 0.00 68 1018.0
20260905183021 85 179 2.0 3.0 0.00 0.00 0.00 68 1017.9
20260905182518 85 181 1.0 5.0 0.00 0.00 0.00 68 1017.9
20260905182043 85 144 1.0 3.0 0.00 0.00 0.00 67 1017.9
20260905181525 85 203 1.0 3.0 0.00 0.00 0.00 67 1017.8
20260905181042 85 179 1.0 3.0 0.00 0.00 0.00 67 1017.7
20260905180517 85 179 1.0 3.0 0.00 0.00 0.00 67 1017.8
20260905180026 85 156 1.0 3.0 0.00 0.00 0.00 66 1017.6
20260905175523 85 171 1.0 2.0 0.00 0.00 0.00 66 1017.6
20260905175022 85 183 1.0 3.0 0.00 0.00 0.00 65 1017.6
20260905174524 86 212 2.0 5.0 0.00 0.00 0.00 65 1017.6
20260905174016 86 181 1.0 2.0 0.00 0.00 0.00 64 1017.6
20260905173520 86 190 2.0 4.0 0.00 0.00 0.00 64 1017.6
20260905173019 86 190 2.0 4.0 0.00 0.00 0.00 63 1017.5
20260905172540 86 186 2.0 4.0 0.00 0.00 0.00 63 1017.4
20260905172021 86 187 2.0 3.0 0.00 0.00 0.00 63 1017.3
20260905171519 86 194 2.0 4.0 0.00 0.00 0.00 63 1017.3
20260905171039 86 191 2.0 5.0 0.00 0.00 0.00 63 1017.3
20260905170524 86 197 2.0 4.0 0.00 0.00 0.00 63 1017.4
20260905170018 86 182 2.0 4.0 0.00 0.00 0.00 63 1017.4
20260905165520 86 171 2.0 4.0 0.00 0.00 0.00 63 1017.4
20260905165018 87 181 2.0 4.0 0.00 0.00 0.00 63 1017.4
20260905164526 87 171 1.0 4.0 0.00 0.00 0.00 62 1017.4
20260905164024 87 190 2.0 4.0 0.00 0.00 0.00 62 1017.4
20260905163605 86 188 2.0 4.0 0.00 0.00 0.00 62 1017.3
20260905163023 86 188 3.0 4.0 0.00 0.00 0.00 64 1017.3
20260905162517 86 185 2.0 5.0 0.00 0.00 0.00 66 1017.4
20260905162039 86 162 2.0 5.0 0.00 0.00 0.00 67 1017.4
20260905161523 86 188 2.0 5.0 0.00 0.00 0.00 68 1017.3
20260905161022 86 182 2.0 6.0 0.00 0.00 0.00 67 1017.4
20260905160520 87 161 2.0 4.0 0.00 0.00 0.00 67 1017.4
20260905160021 87 214 1.0 5.0 0.00 0.00 0.00 66 1017.4
20260905155520 87 175 2.0 4.0 0.00 0.00 0.00 66 1017.3
20260905155023 87 174 2.0 4.0 0.00 0.00 0.00 66 1017.4
20260905154543 87 183 1.0 4.0 0.00 0.00 0.00 66 1017.4
20260905154141 86 185 1.0 3.0 0.00 0.00 0.00 66 1017.4
20260905153558 87 6 3.0 6.0 0.00 0.00 0.00 65 1017.4
20260905153026 87 10 2.0 7.0 0.00 0.00 0.00 65 1017.3
20260905152524 87 4 2.0 7.0 0.00 0.00 0.00 65 1017.3
20260905152025 87 287 2.0 12.0 0.00 0.00 0.00 65 1017.4
20260905151515 86 153 1.0 4.0 0.00 0.00 0.00 65 1017.3
20260905151017 86 17 2.0 6.0 0.00 0.00 0.00 65 1017.3
20260905150643 86 359 4.0 12.0 0.00 0.00 0.00 65 1017.3
20260905150025 86 158 1.0 4.0 0.00 0.00 0.00 65 1017.3
20260905145541 86 354 5.0 11.0 0.00 0.00 0.00 65 1017.3
20260905145046 86 1 3.0 15.0 0.00 0.00 0.00 66 1017.3
20260905144522 86 359 5.0 12.0 0.00 0.00 0.00 66 1017.2
20260905144015 86 356 5.0 11.0 0.00 0.00 0.00 66 1017.3
20260905143600 86 348 7.0 15.0 0.00 0.00 0.00 66 1017.2
20260905143025 86 350 8.0 15.0 0.00 0.00 0.00 65 1017.3
20260905142517 87 349 5.0 14.0 0.00 0.00 0.00 65 1017.3
20260905142019 87 360 4.0 15.0 0.00 0.00 0.00 65 1017.5
20260905141516 87 360 5.0 11.0 0.00 0.00 0.00 66 1017.6
20260905141026 86 2 5.0 10.0 0.00 0.00 0.00 66 1017.5
20260905140546 86 352 8.0 13.0 0.00 0.00 0.00 66 1017.6
20260905140040 86 349 5.0 12.0 0.00 0.00 0.00 66 1017.6
20260905135517 86 353 7.0 16.0 0.00 0.00 0.00 66 1017.6
20260905135019 86 347 9.0 17.0 0.00 0.00 0.00 65 1017.5
20260905134517 87 6 5.0 12.0 0.00 0.00 0.00 65 1017.6
20260905134022 87 352 5.0 9.0 0.00 0.00 0.00 65 1017.6
20260905133516 86 2 4.0 11.0 0.00 0.00 0.00 65 1017.6
20260905133026 87 345 7.0 13.0 0.00 0.00 0.00 65 1017.6
20260905132526 87 355 6.0 16.0 0.00 0.00 0.00 64 1017.6
20260905132019 87 348 5.0 10.0 0.00 0.00 0.00 64 1017.8
20260905131523 87 355 7.0 14.0 0.00 0.00 0.00 64 1017.8
20260905131022 87 350 6.0 12.0 0.00 0.00 0.00 64 1017.9
20260905130519 87 356 6.0 13.0 0.00 0.00 0.00 64 1017.8
20260905130020 87 354 5.0 12.0 0.00 0.00 0.00 63 1017.9
20260905125541 87 355 7.0 15.0 0.00 0.00 0.00 63 1018.0
20260905125015 87 12 4.0 15.0 0.00 0.00 0.00 63 1018.0
20260905124526 87 353 5.0 10.0 0.00 0.00 0.00 64 1017.8
20260905124037 87 354 9.0 14.0 0.00 0.00 0.00 63 1018.0
20260905123516 88 355 5.0 13.0 0.00 0.00 0.00 62 1018.1
20260905123018 88 347 7.0 11.0 0.00 0.00 0.00 61 1018.1
20260905122545 89 346 8.0 14.0 0.00 0.00 0.00 60 1017.9
20260905122023 89 359 5.0 10.0 0.00 0.00 0.00 59 1017.9
20260905121520 89 23 5.0 9.0 0.00 0.00 0.00 60 1018.0
20260905121022 88 345 7.0 12.0 0.00 0.00 0.00 59 1018.0
20260905120518 88 353 4.0 13.0 0.00 0.00 0.00 60 1018.0
20260905120024 88 348 5.0 14.0 0.00 0.00 0.00 61 1018.1
20260905115527 88 353 6.0 13.0 0.00 0.00 0.00 60 1018.1
20260905115021 88 353 8.0 12.0 0.00 0.00 0.00 60 1018.2
20260905114537 88 350 6.0 12.0 0.00 0.00 0.00 60 1018.3
20260905114046 88 0 4.0 11.0 0.00 0.00 0.00 60 1018.3
20260905113525 88 352 5.0 11.0 0.00 0.00 0.00 60 1018.4
20260905113025 89 348 6.0 11.0 0.00 0.00 0.00 59 1018.3
20260905112517 89 349 5.0 12.0 0.00 0.00 0.00 58 1018.3
20260905112025 90 354 6.0 13.0 0.00 0.00 0.00 58 1018.4
20260905111520 90 338 3.0 9.0 0.00 0.00 0.00 58 1018.4
20260905111024 89 354 2.0 6.0 0.00 0.00 0.00 58 1018.4
20260905110521 89 353 5.0 14.0 0.00 0.00 0.00 58 1018.4
20260905110039 89 336 2.0 7.0 0.00 0.00 0.00 60 1018.3
20260905105523 88 352 6.0 13.0 0.00 0.00 0.00 60 1018.2
20260905105108 88 9 4.0 12.0 0.00 0.00 0.00 60 1018.2
20260905104516 88 349 5.0 13.0 0.00 0.00 0.00 61 1018.3
20260905104102 88 358 6.0 13.0 0.00 0.00 0.00 61 1018.3
20260905103524 88 355 3.0 10.0 0.00 0.00 0.00 61 1018.3
20260905103017 88 352 6.0 11.0 0.00 0.00 0.00 61 1018.3
20260905102517 89 1 4.0 13.0 0.00 0.00 0.00 61 1018.2
20260905102024 88 20 3.0 8.0 0.00 0.00 0.00 61 1018.3
20260905101516 88 9 4.0 13.0 0.00 0.00 0.00 61 1018.4
20260905101021 88 2 5.0 10.0 0.00 0.00 0.00 61 1018.4
20260905100526 88 353 6.0 10.0 0.00 0.00 0.00 61 1018.3
20260905100029 88 21 4.0 9.0 0.00 0.00 0.00 61 1018.2
20260905095520 88 358 3.0 7.0 0.00 0.00 0.00 61 1018.3
20260905095020 88 8 4.0 11.0 0.00 0.00 0.00 61 1018.4
20260905094524 88 345 4.0 10.0 0.00 0.00 0.00 61 1018.4
20260905094024 88 1 5.0 14.0 0.00 0.00 0.00 61 1018.3
20260905093605 88 358 4.0 16.0 0.00 0.00 0.00 61 1018.3
20260905093045 88 11 4.0 9.0 0.00 0.00 0.00 61 1018.4
20260905092521 88 1 4.0 9.0 0.00 0.00 0.00 61 1018.4
20260905092020 88 348 4.0 8.0 0.00 0.00 0.00 62 1018.4
20260905091525 87 2 3.0 8.0 0.00 0.00 0.00 63 1018.4
20260905091025 87 354 6.0 11.0 0.00 0.00 0.00 62 1018.4
20260905090518 88 346 7.0 15.0 0.00 0.00 0.00 62 1018.4
20260905090022 87 25 2.0 7.0 0.00 0.00 0.00 63 1018.5
20260905085523 87 359 5.0 9.0 0.00 0.00 0.00 63 1018.4
20260905085018 87 354 3.0 7.0 0.00 0.00 0.00 64 1018.4
20260905084521 86 1 4.0 8.0 0.00 0.00 0.00 64 1018.4
20260905084020 87 355 7.0 13.0 0.00 0.00 0.00 64 1018.5
20260905083526 87 353 5.0 9.0 0.00 0.00 0.00 65 1018.4
20260905083016 86 356 4.0 11.0 0.00 0.00 0.00 66 1018.3
20260905082541 86 350 5.0 12.0 0.00 0.00 0.00 66 1018.3
20260905082030 86 342 6.0 12.0 0.00 0.00 0.00 65 1018.3
20260905081518 87 2 4.0 11.0 0.00 0.00 0.00 66 1018.4
20260905081025 86 1 4.0 8.0 0.00 0.00 0.00 66 1018.3
20260905080526 86 356 4.0 11.0 0.00 0.00 0.00 66 1018.3
20260905080058 86 352 5.0 13.0 0.00 0.00 0.00 64 1018.4
20260905075526 87 1 4.0 10.0 0.00 0.00 0.00 63 1018.1
20260905075039 88 2 3.0 9.0 0.00 0.00 0.00 63 1018.0
20260905074541 87 45 2.0 4.0 0.00 0.00 0.00 64 1018.1
20260905074023 87 14 2.0 8.0 0.00 0.00 0.00 64 1018.2
20260905073515 87 359 3.0 9.0 0.00 0.00 0.00 64 1018.1
20260905073104 87 12 2.0 4.0 0.00 0.00 0.00 64 1018.1